createdAt,value
2022-09-22T00:01:08.261Z,101773.72
2022-09-22T00:03:46.167Z,101776.28
2022-09-22T00:06:18.248Z,101772.63
2022-09-22T00:08:48.295Z,101762.50
2022-09-22T00:11:17.368Z,101768.53
2022-09-22T00:13:46.069Z,101765.06
2022-09-22T00:16:14.359Z,101766.25
2022-09-22T00:18:40.970Z,101775.06
2022-09-22T00:21:09.342Z,101774.00
2022-09-22T00:23:36.786Z,101769.44
2022-09-22T00:26:08.219Z,101771.38
2022-09-22T00:28:34.908Z,101769.72
2022-09-22T00:31:05.357Z,101765.19
2022-09-22T00:33:32.251Z,101768.94
2022-09-22T00:36:00.041Z,101773.00
2022-09-22T00:38:26.847Z,101765.63
2022-09-22T00:40:53.607Z,101766.97
2022-09-22T00:43:24.960Z,101766.66
2022-09-22T00:45:58.361Z,101763.59
2022-09-22T00:48:25.967Z,101766.22
2022-09-22T00:50:53.851Z,101766.53
2022-09-22T00:53:21.178Z,101763.69
2022-09-22T00:55:53.610Z,101763.69
2022-09-22T00:58:25.630Z,101762.75
2022-09-22T01:00:52.194Z,101753.97
2022-09-22T01:03:20.924Z,101761.41
2022-09-22T01:05:49.044Z,101755.94
2022-09-22T01:08:16.882Z,101759.88
2022-09-22T01:10:43.428Z,101752.53
2022-09-22T01:13:31.164Z,101750.25
2022-09-22T01:16:03.488Z,101745.84
2022-09-22T01:18:36.038Z,101738.25
2022-09-22T01:21:21.367Z,101744.31
2022-09-22T01:24:06.604Z,101739.31
2022-09-22T01:26:50.122Z,101739.19
2022-09-22T01:29:35.278Z,101736.59
2022-09-22T01:32:07.881Z,101734.75
2022-09-22T01:34:50.519Z,101736.06
2022-09-22T01:37:23.376Z,101740.91
2022-09-22T01:40:02.393Z,101735.63
2022-09-22T01:42:39.506Z,101735.31
2022-09-22T01:45:11.592Z,101732.53
2022-09-22T01:47:44.047Z,101726.19
2022-09-22T01:50:18.250Z,101725.69
2022-09-22T01:52:44.827Z,101727.53
2022-09-22T01:55:23.613Z,101727.22
2022-09-22T01:58:01.032Z,101721.56
2022-09-22T02:00:27.894Z,101721.28
2022-09-22T02:03:01.139Z,101724.50
2022-09-22T02:05:34.504Z,101715.84
2022-09-22T02:08:03.362Z,101715.69
2022-09-22T02:10:36.221Z,101717.00
2022-09-22T02:13:02.696Z,101708.97
2022-09-22T02:15:48.132Z,101711.63
2022-09-22T02:18:27.847Z,101702.50
2022-09-22T02:20:54.212Z,101709.81
2022-09-22T02:23:20.623Z,101705.88
2022-09-22T02:25:47.694Z,101701.09
2022-09-22T02:28:16.415Z,101704.09
2022-09-22T02:30:59.117Z,101702.25
2022-09-22T02:33:38.058Z,101714.25
2022-09-22T02:36:13.787Z,101707.09
2022-09-22T02:38:49.520Z,101710.84
2022-09-22T02:41:26.512Z,101707.09
2022-09-22T02:44:03.372Z,101696.31
2022-09-22T02:46:38.860Z,101700.28
2022-09-22T02:49:17.352Z,101690.19
2022-09-22T02:51:43.874Z,101693.75
2022-09-22T02:54:10.225Z,101698.78
2022-09-22T02:56:36.603Z,101697.69
2022-09-22T02:59:03.040Z,101694.09
2022-09-22T03:01:29.619Z,101694.13
2022-09-22T03:03:56.106Z,101697.41
2022-09-22T03:06:22.664Z,101688.75
2022-09-22T03:08:49.082Z,101691.13
2022-09-22T03:11:15.442Z,101686.09
2022-09-22T03:13:41.807Z,101682.84
2022-09-22T03:16:09.106Z,101684.84
2022-09-22T03:18:35.514Z,101683.19
2022-09-22T03:21:01.867Z,101682.56
2022-09-22T03:23:28.764Z,101683.97
2022-09-22T03:25:55.106Z,101673.91
2022-09-22T03:28:21.606Z,101679.44
2022-09-22T03:30:47.998Z,101685.13
2022-09-22T03:33:14.572Z,101676.16
2022-09-22T03:35:41.219Z,101681.25
2022-09-22T03:38:07.588Z,101677.84
2022-09-22T03:40:34.131Z,101677.59
2022-09-22T03:43:00.655Z,101671.38
2022-09-22T03:45:27.887Z,101669.16
2022-09-22T03:47:54.561Z,101672.97
2022-09-22T03:50:21.297Z,101671.63
2022-09-22T03:52:47.712Z,101670.88
2022-09-22T03:55:14.139Z,101671.03
2022-09-22T03:57:40.831Z,101671.00
2022-09-22T04:00:08.572Z,101672.97
2022-09-22T04:02:35.076Z,101671.63
2022-09-22T04:05:01.503Z,101666.38
2022-09-22T04:07:27.850Z,101670.41
2022-09-22T04:09:54.249Z,101667.56
2022-09-22T04:12:20.604Z,101663.63
2022-09-22T04:14:47.031Z,101660.16
2022-09-22T04:17:13.618Z,101655.41
2022-09-22T04:19:39.992Z,101651.28
2022-09-22T04:22:06.350Z,101658.75
2022-09-22T04:24:32.995Z,101657.53
2022-09-22T04:27:19.194Z,101659.34
2022-09-22T04:29:45.712Z,101664.84
2022-09-22T04:32:12.137Z,101656.81
2022-09-22T04:34:38.567Z,101656.47
2022-09-22T04:37:05.022Z,101663.44
2022-09-22T04:39:31.436Z,101652.91
2022-09-22T04:41:57.799Z,101663.09
2022-09-22T04:44:24.160Z,101658.63
2022-09-22T04:46:50.605Z,101653.91
2022-09-22T04:49:17.999Z,101656.66
2022-09-22T04:51:44.570Z,101650.72
2022-09-22T04:54:10.962Z,101653.56
2022-09-22T04:56:37.324Z,101653.28
2022-09-22T04:59:03.738Z,101649.69
2022-09-22T05:01:30.163Z,101647.03
2022-09-22T05:03:56.596Z,101655.13
2022-09-22T05:06:22.953Z,101655.13
2022-09-22T05:08:49.330Z,101654.81
2022-09-22T05:11:15.683Z,101659.72
2022-09-22T05:13:42.063Z,101663.25
2022-09-22T05:16:08.618Z,101658.09
2022-09-22T05:18:35.140Z,101656.41
2022-09-22T05:21:01.932Z,101661.88
2022-09-22T05:23:28.405Z,101665.63
2022-09-22T05:25:54.844Z,101660.97
2022-09-22T05:28:24.190Z,101657.91
2022-09-22T05:30:51.470Z,101661.06
2022-09-22T05:33:17.892Z,101662.63
2022-09-22T05:35:44.347Z,101662.03
2022-09-22T05:38:10.717Z,101663.72
2022-09-22T05:40:37.124Z,101665.00
2022-09-22T05:43:03.519Z,101663.59
2022-09-22T05:45:29.971Z,101665.16
2022-09-22T05:47:56.369Z,101671.72
2022-09-22T05:50:23.838Z,101670.03
2022-09-22T05:52:50.432Z,101676.19
2022-09-22T05:55:16.871Z,101672.81
2022-09-22T05:57:43.869Z,101670.06
2022-09-22T06:00:11.068Z,101668.13
2022-09-22T06:02:38.163Z,101666.63
2022-09-22T06:05:04.783Z,101677.34
2022-09-22T06:07:31.196Z,101675.78
2022-09-22T06:09:57.639Z,101679.38
2022-09-22T06:12:24.050Z,101678.34
2022-09-22T06:14:50.432Z,101681.03
2022-09-22T06:17:16.781Z,101682.72
2022-09-22T06:19:43.228Z,101681.03
2022-09-22T06:22:11.190Z,101679.88
2022-09-22T06:24:37.920Z,101677.97
2022-09-22T06:27:04.621Z,101680.97
2022-09-22T06:29:31.068Z,101681.75
2022-09-22T06:31:57.468Z,101680.16
2022-09-22T06:34:23.885Z,101678.38
2022-09-22T06:36:50.266Z,101676.84
2022-09-22T06:39:16.644Z,101672.03
2022-09-22T06:41:44.640Z,101671.16
2022-09-22T06:44:14.242Z,101683.44
2022-09-22T06:46:41.902Z,101673.50
2022-09-22T06:49:08.338Z,101681.16
2022-09-22T06:51:35.937Z,101682.78
2022-09-22T06:54:05.122Z,101673.94
2022-09-22T06:56:36.619Z,101673.94
2022-09-22T06:59:10.250Z,101675.19
2022-09-22T07:01:37.802Z,101678.22
2022-09-22T07:04:04.620Z,101669.75
2022-09-22T07:06:31.479Z,101671.44
2022-09-22T07:08:57.859Z,101666.44
2022-09-22T07:11:24.261Z,101667.78
2022-09-22T07:13:54.451Z,101665.34
2022-09-22T07:16:23.029Z,101661.84
2022-09-22T07:18:54.544Z,101666.56
2022-09-22T07:21:23.982Z,101664.13
2022-09-22T07:23:51.925Z,101663.06
2022-09-22T07:26:21.874Z,101662.88
2022-09-22T07:28:51.877Z,101664.63
2022-09-22T07:31:18.406Z,101653.31
2022-09-22T07:33:46.142Z,101651.69
2022-09-22T07:36:18.449Z,101656.28
2022-09-22T07:38:46.571Z,101654.72
2022-09-22T07:41:14.605Z,101654.47
2022-09-22T07:43:41.644Z,101656.81
2022-09-22T07:46:08.475Z,101652.63
2022-09-22T07:48:37.520Z,101654.22
2022-09-22T07:51:06.264Z,101649.53
2022-09-22T07:53:32.753Z,101650.63
2022-09-22T07:56:06.259Z,101650.50
2022-09-22T07:58:33.387Z,101647.66
2022-09-22T08:01:06.456Z,101647.94
2022-09-22T08:03:34.029Z,101646.41
2022-09-22T08:06:08.050Z,101632.72
2022-09-22T08:08:34.610Z,101638.31
2022-09-22T08:11:14.992Z,101641.63
2022-09-22T08:13:44.283Z,101635.63
2022-09-22T08:16:11.778Z,101636.31
2022-09-22T08:18:39.604Z,101630.59
2022-09-22T08:21:06.998Z,101622.44
2022-09-22T08:23:33.417Z,101625.81
2022-09-22T08:26:05.387Z,101624.00
2022-09-22T08:28:32.301Z,101623.53
2022-09-22T08:30:59.173Z,101620.91
2022-09-22T08:33:26.546Z,101620.03
2022-09-22T08:35:54.406Z,101618.44
2022-09-22T08:38:23.067Z,101621.69
2022-09-22T08:41:18.129Z,101622.44
2022-09-22T08:43:46.983Z,101624.22
2022-09-22T08:46:13.770Z,101623.13
2022-09-22T08:49:01.348Z,101613.50
2022-09-22T08:51:52.046Z,101609.91
2022-09-22T08:54:20.322Z,101615.13
2022-09-22T08:57:11.295Z,101617.25
2022-09-22T08:59:43.917Z,101612.34
2022-09-22T09:02:33.943Z,101618.56
2022-09-22T09:05:28.475Z,101618.44
2022-09-22T09:08:28.441Z,101614.13
2022-09-22T09:10:57.060Z,101620.63
2022-09-22T09:14:14.116Z,101618.25
2022-09-22T09:16:58.193Z,101622.53
2022-09-22T09:19:43.826Z,101609.00
2022-09-22T09:22:42.690Z,101608.53
2022-09-22T09:25:27.134Z,101615.69
2022-09-22T09:28:06.341Z,101609.91
2022-09-22T09:30:40.470Z,101622.81
2022-09-22T09:33:16.936Z,101610.25
2022-09-22T09:35:50.267Z,101609.41
2022-09-22T09:38:19.281Z,101602.78
2022-09-22T09:40:49.428Z,101599.31
2022-09-22T09:43:16.077Z,101592.69
2022-09-22T09:46:04.383Z,101591.41
2022-09-22T09:48:45.947Z,101589.63
2022-09-22T09:51:13.579Z,101589.97
2022-09-22T09:53:44.902Z,101584.69
2022-09-22T09:56:31.753Z,101583.00
2022-09-22T09:59:25.009Z,101576.13
2022-09-22T10:01:53.865Z,101580.19
2022-09-22T10:04:29.091Z,101566.34
2022-09-22T10:07:12.809Z,101566.06
2022-09-22T10:09:40.285Z,101560.16
2022-09-22T10:12:23.786Z,101544.78
2022-09-22T10:14:52.185Z,101554.47
2022-09-22T10:17:21.801Z,101551.72
2022-09-22T10:19:48.205Z,101549.44
2022-09-22T10:22:24.254Z,101540.91
2022-09-22T10:24:57.041Z,101532.16
2022-09-22T10:27:25.058Z,101535.97
2022-09-22T10:30:21.238Z,101535.13
2022-09-22T10:33:11.487Z,101528.84
2022-09-22T10:35:38.154Z,101526.28
2022-09-22T10:38:19.743Z,101526.41
2022-09-22T10:41:23.210Z,101519.81
2022-09-22T10:43:55.893Z,101521.63
2022-09-22T10:47:06.142Z,101520.53
2022-09-22T10:50:04.898Z,101517.47
2022-09-22T10:52:49.986Z,101512.34
2022-09-22T10:55:28.299Z,101518.69
2022-09-22T10:58:09.848Z,101514.94
2022-09-22T11:00:39.252Z,101519.72
2022-09-22T11:03:18.245Z,101518.56
2022-09-22T11:06:02.824Z,101513.44
2022-09-22T11:09:00.856Z,101515.81
2022-09-22T11:11:48.211Z,101517.66
2022-09-22T11:14:14.483Z,101510.25
2022-09-22T11:17:03.952Z,101506.28
2022-09-22T11:19:43.146Z,101500.88
2022-09-22T11:22:23.967Z,101500.44
2022-09-22T11:25:26.077Z,101495.44
2022-09-22T11:28:04.454Z,101507.56
2022-09-22T11:30:35.251Z,101493.41
2022-09-22T11:33:24.505Z,101493.63
2022-09-22T11:36:21.430Z,101468.19
2022-09-22T11:39:18.805Z,101473.88
2022-09-22T11:42:10.067Z,101456.19
2022-09-22T11:44:40.882Z,101463.56
2022-09-22T11:47:28.942Z,101454.31
2022-09-22T11:50:44.858Z,101450.97
2022-09-22T11:53:23.601Z,101449.16
2022-09-22T11:56:15.706Z,101432.94
2022-09-22T11:58:44.470Z,101435.91
2022-09-22T12:01:21.867Z,101444.88
2022-09-22T12:03:53.716Z,101435.94
2022-09-22T12:06:26.156Z,101431.63
2022-09-22T12:09:03.424Z,101431.28
2022-09-22T12:11:36.002Z,101411.75
2022-09-22T12:14:03.196Z,101409.44
2022-09-22T12:16:50.123Z,101411.00
2022-09-22T12:19:39.570Z,101408.56
2022-09-22T12:22:16.779Z,101399.25
2022-09-22T12:24:46.965Z,101397.28
2022-09-22T12:27:22.263Z,101400.16
2022-09-22T12:30:00.837Z,101388.88
2022-09-22T12:32:39.250Z,101394.41
2022-09-22T12:35:06.673Z,101392.69
2022-09-22T12:37:36.374Z,101389.75
2022-09-22T12:40:35.407Z,101384.69
2022-09-22T12:43:01.858Z,101380.38
2022-09-22T12:45:34.719Z,101391.72
2022-09-22T12:48:09.799Z,101388.34
2022-09-22T12:50:39.905Z,101388.16
2022-09-22T12:53:25.900Z,101385.66
2022-09-22T12:55:56.208Z,101376.94
2022-09-22T12:58:23.350Z,101375.59
2022-09-22T13:00:52.002Z,101373.44
2022-09-22T13:03:24.823Z,101370.28
2022-09-22T13:05:55.917Z,101370.78
2022-09-22T13:08:31.189Z,101375.13
2022-09-22T13:10:59.459Z,101364.56
2022-09-22T13:13:31.925Z,101372.13
2022-09-22T13:16:00.584Z,101361.28
2022-09-22T13:18:29.944Z,101359.09
2022-09-22T13:21:02.775Z,101347.91
2022-09-22T13:23:29.515Z,101341.13
2022-09-22T13:26:05.693Z,101327.16
2022-09-22T13:28:32.059Z,101318.13
2022-09-22T13:31:18.703Z,101335.50
2022-09-22T13:33:45.113Z,101317.03
2022-09-22T13:36:17.529Z,101318.63
2022-09-22T13:38:51.045Z,101317.38
2022-09-22T13:41:23.960Z,101318.41
2022-09-22T13:43:54.789Z,101305.84
2022-09-22T13:46:28.142Z,101305.75
2022-09-22T13:48:55.815Z,101299.69
2022-09-22T13:51:22.296Z,101307.94
2022-09-22T13:53:53.916Z,101292.47
2022-09-22T13:56:22.104Z,101289.34
2022-09-22T13:58:50.105Z,101290.88
2022-09-22T14:01:22.575Z,101298.75
2022-09-22T14:03:50.441Z,101288.75
2022-09-22T14:06:25.872Z,101287.31
2022-09-22T14:08:53.151Z,101282.66
2022-09-22T14:11:22.301Z,101267.94
2022-09-22T14:13:54.851Z,101278.63
2022-09-22T14:16:33.157Z,101289.06
2022-09-22T14:19:17.701Z,101279.56
2022-09-22T14:21:51.269Z,101272.97
2022-09-22T14:24:18.069Z,101269.25
2022-09-22T14:26:53.514Z,101266.53
2022-09-22T14:29:32.992Z,101266.53
2022-09-22T14:32:11.849Z,101275.22
2022-09-22T14:34:39.507Z,101270.34
2022-09-22T14:37:20.370Z,101270.25
2022-09-22T14:39:47.197Z,101273.56
2022-09-22T14:42:20.399Z,101276.28
2022-09-22T14:44:50.357Z,101283.75
2022-09-22T14:47:26.089Z,101282.25
2022-09-22T14:50:27.978Z,101276.91
2022-09-22T14:53:17.772Z,101266.19
2022-09-22T14:55:47.296Z,101272.50
2022-09-22T14:58:17.440Z,101270.22
2022-09-22T15:01:18.233Z,101263.66
2022-09-22T15:03:53.226Z,101264.91
2022-09-22T15:06:23.126Z,101263.06
2022-09-22T15:08:52.200Z,101255.69
2022-09-22T15:11:18.873Z,101261.94
2022-09-22T15:13:47.469Z,101266.38
2022-09-22T15:16:40.346Z,101256.13
2022-09-22T15:19:11.880Z,101251.22
2022-09-22T15:21:40.519Z,101257.78
2022-09-22T15:24:06.920Z,101264.31
2022-09-22T15:26:33.436Z,101261.81
2022-09-22T15:29:01.140Z,101262.44
2022-09-22T15:31:28.150Z,101257.31
2022-09-22T15:34:01.184Z,101255.34
2022-09-22T15:36:30.520Z,101250.84
2022-09-22T15:39:08.174Z,101248.84
2022-09-22T15:41:34.855Z,101247.91
2022-09-22T15:44:02.362Z,101236.81
2022-09-22T15:46:33.841Z,101225.25
2022-09-22T15:49:25.928Z,101215.16
2022-09-22T15:51:52.863Z,101211.53
2022-09-22T15:54:21.724Z,101201.44
2022-09-22T15:56:51.236Z,101203.84
2022-09-22T15:59:22.847Z,101196.44
2022-09-22T16:01:49.290Z,101202.50
2022-09-22T16:04:15.644Z,101197.22
2022-09-22T16:06:43.940Z,101206.84
2022-09-22T16:09:19.068Z,101203.75
2022-09-22T16:11:45.431Z,101203.81
2022-09-22T16:14:12.080Z,101216.53
2022-09-22T16:16:38.731Z,101211.78
2022-09-22T16:19:09.389Z,101215.03
2022-09-22T16:21:38.491Z,101216.75
2022-09-22T16:24:08.323Z,101208.31
2022-09-22T16:26:36.860Z,101216.72
2022-09-22T16:29:04.344Z,101210.69
2022-09-22T16:31:31.335Z,101216.78
2022-09-22T16:34:00.340Z,101211.34
2022-09-22T16:36:29.183Z,101218.59
2022-09-22T16:38:55.688Z,101215.00
2022-09-22T16:41:34.047Z,101213.28
2022-09-22T16:44:01.010Z,101203.41
2022-09-22T16:46:28.856Z,101205.94
2022-09-22T16:49:23.170Z,101214.38
2022-09-22T16:51:50.479Z,101211.81
2022-09-22T16:54:18.272Z,101213.03
2022-09-22T16:56:46.110Z,101211.97
2022-09-22T16:59:15.877Z,101216.66
2022-09-22T17:01:43.665Z,101214.63
2022-09-22T17:04:12.322Z,101221.66
2022-09-22T17:06:40.594Z,101223.38
2022-09-22T17:09:08.271Z,101222.22
2022-09-22T17:11:37.036Z,101220.16
2022-09-22T17:14:11.296Z,101223.81
2022-09-22T17:16:47.251Z,101231.47
2022-09-22T17:19:17.054Z,101231.66
2022-09-22T17:21:43.726Z,101230.75
2022-09-22T17:24:10.125Z,101230.75
2022-09-22T17:26:47.215Z,101240.66
2022-09-22T17:29:18.863Z,101230.13
2022-09-22T17:31:47.900Z,101228.84
2022-09-22T17:34:14.648Z,101231.19
2022-09-22T17:36:41.045Z,101233.44
2022-09-22T17:39:10.141Z,101229.78
2022-09-22T17:41:41.482Z,101234.03
2022-09-22T17:44:10.149Z,101239.38
2022-09-22T17:46:36.557Z,101240.16
2022-09-22T17:49:21.477Z,101239.28
2022-09-22T17:52:08.269Z,101238.06
2022-09-22T17:54:57.984Z,101243.69
2022-09-22T17:57:28.895Z,101242.28
2022-09-22T17:59:56.396Z,101242.06
2022-09-22T18:02:24.458Z,101250.41
2022-09-22T18:04:51.599Z,101249.38
2022-09-22T18:07:20.470Z,101242.94
2022-09-22T18:09:48.368Z,101247.34
2022-09-22T18:12:20.148Z,101253.66
2022-09-22T18:14:48.312Z,101249.56
2022-09-22T18:17:16.877Z,101248.84
2022-09-22T18:19:43.792Z,101245.31
2022-09-22T18:22:16.560Z,101251.66
2022-09-22T18:24:45.093Z,101248.47
2022-09-22T18:27:14.258Z,101247.53
2022-09-22T18:29:40.758Z,101241.00
2022-09-22T18:32:07.225Z,101245.63
2022-09-22T18:34:33.626Z,101248.47
2022-09-22T18:37:01.253Z,101248.34
2022-09-22T18:39:28.709Z,101251.47
2022-09-22T18:41:55.292Z,101248.56
2022-09-22T18:44:22.218Z,101257.63
2022-09-22T18:46:48.931Z,101256.34
2022-09-22T18:49:16.381Z,101258.53
2022-09-22T18:51:51.435Z,101259.50
2022-09-22T18:54:19.366Z,101259.13
2022-09-22T18:56:46.873Z,101254.19
2022-09-22T18:59:18.652Z,101256.78
2022-09-22T19:01:46.279Z,101245.16
2022-09-22T19:04:17.414Z,101249.41
2022-09-22T19:07:03.494Z,101242.09
2022-09-22T19:09:29.933Z,101253.72
2022-09-22T19:11:56.976Z,101246.75
2022-09-22T19:14:24.352Z,101241.56
2022-09-22T19:16:51.324Z,101251.06
2022-09-22T19:19:20.322Z,101248.88
2022-09-22T19:21:51.533Z,101246.63
2022-09-22T19:24:18.808Z,101248.06
2022-09-22T19:26:45.514Z,101252.16
2022-09-22T19:29:12.410Z,101244.72
2022-09-22T19:31:41.066Z,101244.25
2022-09-22T19:34:09.040Z,101253.38
2022-09-22T19:36:35.949Z,101256.88
2022-09-22T19:39:02.332Z,101249.66
2022-09-22T19:41:28.757Z,101249.22
2022-09-22T19:43:55.680Z,101248.19
2022-09-22T19:46:23.168Z,101248.38
2022-09-22T19:48:49.959Z,101247.56
2022-09-22T19:51:16.416Z,101243.03
2022-09-22T19:53:42.779Z,101247.44
2022-09-22T19:56:09.248Z,101240.16
2022-09-22T19:58:36.067Z,101237.91
2022-09-22T20:01:02.416Z,101243.31
2022-09-22T20:03:28.855Z,101239.66
2022-09-22T20:05:55.209Z,101234.00
2022-09-22T20:08:22.554Z,101233.16
2022-09-22T20:11:06.169Z,101232.78
2022-09-22T20:13:59.791Z,101238.41
2022-09-22T20:16:28.085Z,101236.09
2022-09-22T20:18:54.983Z,101237.69
2022-09-22T20:21:21.466Z,101234.34
2022-09-22T20:23:47.838Z,101238.47
2022-09-22T20:26:14.286Z,101243.41
2022-09-22T20:28:41.405Z,101235.25
2022-09-22T20:31:11.924Z,101239.00
2022-09-22T20:33:38.880Z,101241.03
2022-09-22T20:36:05.960Z,101242.34
2022-09-22T20:38:33.727Z,101235.25
2022-09-22T20:41:01.096Z,101241.59
2022-09-22T20:43:28.775Z,101239.13
2022-09-22T20:46:04.303Z,101243.97
2022-09-22T20:48:30.780Z,101234.03
2022-09-22T20:50:58.001Z,101242.91
2022-09-22T20:53:24.627Z,101235.25
2022-09-22T20:56:17.522Z,101233.75
2022-09-22T20:58:45.565Z,101232.19
2022-09-22T21:01:14.111Z,101227.91
2022-09-22T21:03:40.590Z,101229.22
2022-09-22T21:06:09.568Z,101242.84
2022-09-22T21:08:59.175Z,101234.81
2022-09-22T21:11:26.408Z,101228.69
2022-09-22T21:13:58.689Z,101225.03
2022-09-22T21:16:25.071Z,101227.38
2022-09-22T21:18:51.744Z,101232.88
2022-09-22T21:21:19.655Z,101232.38
2022-09-22T21:23:48.267Z,101224.38
2022-09-22T21:26:15.929Z,101220.75
2022-09-22T21:28:42.897Z,101223.72
2022-09-22T21:31:10.493Z,101225.28
2022-09-22T21:33:37.686Z,101220.00
2022-09-22T21:36:13.628Z,101226.50
2022-09-22T21:38:44.527Z,101223.09
2022-09-22T21:41:14.161Z,101228.28
2022-09-22T21:43:40.704Z,101225.09
2022-09-22T21:46:12.374Z,101223.34
2022-09-22T21:48:38.870Z,101215.22
2022-09-22T21:51:07.938Z,101210.56
2022-09-22T21:53:35.455Z,101221.44
2022-09-22T21:56:07.262Z,101202.41
2022-09-22T21:58:36.203Z,101209.66
2022-09-22T22:01:14.451Z,101201.13
2022-09-22T22:03:42.419Z,101205.78
2022-09-22T22:06:15.862Z,101203.22
2022-09-22T22:08:55.440Z,101201.56
2022-09-22T22:11:24.326Z,101196.34
2022-09-22T22:13:52.978Z,101195.09
2022-09-22T22:16:21.512Z,101192.88
2022-09-22T22:18:48.376Z,101199.47
2022-09-22T22:21:18.129Z,101199.88
2022-09-22T22:23:49.248Z,101194.19
2022-09-22T22:26:19.881Z,101198.56
2022-09-22T22:28:47.638Z,101194.31
2022-09-22T22:31:16.239Z,101185.28
2022-09-22T22:33:43.367Z,101186.56
2022-09-22T22:36:12.843Z,101191.97
2022-09-22T22:38:40.101Z,101190.84
2022-09-22T22:41:06.409Z,101186.69
2022-09-22T22:43:33.099Z,101185.78
2022-09-22T22:45:59.766Z,101188.75
2022-09-22T22:48:26.732Z,101179.56
2022-09-22T22:50:53.912Z,101178.78
2022-09-22T22:53:21.085Z,101176.34
2022-09-22T22:55:59.546Z,101178.16
2022-09-22T22:58:28.567Z,101180.34
2022-09-22T23:01:12.663Z,101171.94
2022-09-22T23:03:41.311Z,101171.16
2022-09-22T23:06:19.443Z,101169.38
2022-09-22T23:08:46.240Z,101172.06
2022-09-22T23:11:24.503Z,101169.75
2022-09-22T23:13:53.360Z,101164.72
2022-09-22T23:16:23.574Z,101164.31
2022-09-22T23:18:51.093Z,101164.72
2022-09-22T23:21:19.521Z,101171.28
2022-09-22T23:23:48.025Z,101167.41
2022-09-22T23:26:15.619Z,101164.19
2022-09-22T23:28:42.742Z,101157.72
2022-09-22T23:31:14.674Z,101163.75
2022-09-22T23:33:44.140Z,101164.97
2022-09-22T23:36:13.280Z,101157.84
2022-09-22T23:38:39.645Z,101152.28
2022-09-22T23:41:06.142Z,101157.31
2022-09-22T23:43:33.194Z,101150.56
2022-09-22T23:46:00.021Z,101150.63
2022-09-22T23:48:29.191Z,101147.09
2022-09-22T23:50:55.575Z,101148.75
2022-09-22T23:53:24.219Z,101149.31
2022-09-22T23:55:51.164Z,101148.53
2022-09-22T23:58:18.756Z,101142.56
